Terminal Aerodrome Forecast
Issued by NWS

Home | Current Version | Previous Version | Text Only | Print | Product List | Glossary On
Versions: 1 2 3 4 5 6 7 8 9 10 11 12 13 14 15 16 17 18 19 20 21 22 23 24 25 26 27 28 29 30 31
681
FTUS43 KLOT 291456 AAA
TAFMDW
TAF AMD
KMDW 291456Z 2915/3012 03019G28KT P6SM VCSH BKN018 OVC025
      TEMPO 2915/2919 6SM SHRA OVC015
     FM300100 03012G18KT P6SM VCSH BKN010
     FM300600 02012G18KT P6SM VCSH BKN008=

USA.gov is the U.S. government's official web portal to all federal, state and local government web resources and services.